sensor_id;sensor_type;location;lat;lon;timestamp;pressure;altitude;pressure_sealevel;temperature
67966;BMP280;54749;47.850;9.002;2023-08-06T00:02:27;95340.28;;;12.78
67966;BMP280;54749;47.850;9.002;2023-08-06T00:04:54;95339.28;;;12.71
67966;BMP280;54749;47.850;9.002;2023-08-06T00:07:21;95332.25;;;12.65
67966;BMP280;54749;47.850;9.002;2023-08-06T00:09:49;95339.47;;;12.61
67966;BMP280;54749;47.850;9.002;2023-08-06T00:12:15;95338.13;;;12.57
67966;BMP280;54749;47.850;9.002;2023-08-06T00:14:43;95334.00;;;12.56
67966;BMP280;54749;47.850;9.002;2023-08-06T00:17:10;95336.81;;;12.53
67966;BMP280;54749;47.850;9.002;2023-08-06T00:19:38;95331.75;;;12.53
67966;BMP280;54749;47.850;9.002;2023-08-06T00:22:05;95327.09;;;12.48
67966;BMP280;54749;47.850;9.002;2023-08-06T00:24:33;95339.41;;;12.43
67966;BMP280;54749;47.850;9.002;2023-08-06T00:27:00;95332.50;;;12.36
67966;BMP280;54749;47.850;9.002;2023-08-06T00:29:27;95334.94;;;12.28
67966;BMP280;54749;47.850;9.002;2023-08-06T00:31:54;95329.50;;;12.24
67966;BMP280;54749;47.850;9.002;2023-08-06T00:34:21;95327.50;;;12.18
67966;BMP280;54749;47.850;9.002;2023-08-06T00:36:48;95324.59;;;12.13
67966;BMP280;54749;47.850;9.002;2023-08-06T00:39:16;95331.56;;;12.11
67966;BMP280;54749;47.850;9.002;2023-08-06T00:41:43;95319.16;;;12.08
67966;BMP280;54749;47.850;9.002;2023-08-06T00:44:11;95316.25;;;12.03
67966;BMP280;54749;47.850;9.002;2023-08-06T00:46:39;95323.31;;;12.00
67966;BMP280;54749;47.850;9.002;2023-08-06T00:49:06;95327.84;;;11.96
67966;BMP280;54749;47.850;9.002;2023-08-06T00:51:34;95318.81;;;11.94
67966;BMP280;54749;47.850;9.002;2023-08-06T00:54:02;95324.13;;;11.91
67966;BMP280;54749;47.850;9.002;2023-08-06T00:56:30;95316.97;;;11.87
67966;BMP280;54749;47.850;9.002;2023-08-06T00:58:57;95312.97;;;11.84
67966;BMP280;54749;47.850;9.002;2023-08-06T01:01:24;95310.88;;;11.80
67966;BMP280;54749;47.850;9.002;2023-08-06T01:03:53;95301.03;;;11.77
67966;BMP280;54749;47.850;9.002;2023-08-06T01:09:18;95306.09;;;11.77
67966;BMP280;54749;47.850;9.002;2023-08-06T01:11:59;95302.59;;;11.78
67966;BMP280;54749;47.850;9.002;2023-08-06T01:17:07;95283.66;;;11.82
67966;BMP280;54749;47.850;9.002;2023-08-06T01:19:35;95287.66;;;11.84
67966;BMP280;54749;47.850;9.002;2023-08-06T01:22:03;95285.00;;;11.86
67966;BMP280;54749;47.850;9.002;2023-08-06T01:24:32;95281.81;;;11.84
67966;BMP280;54749;47.850;9.002;2023-08-06T01:27:12;95283.66;;;11.82
67966;BMP280;54749;47.850;9.002;2023-08-06T01:29:48;95275.72;;;11.77
67966;BMP280;54749;47.850;9.002;2023-08-06T01:32:15;95279.06;;;11.68
67966;BMP280;54749;47.850;9.002;2023-08-06T01:34:44;95272.00;;;11.62
67966;BMP280;54749;47.850;9.002;2023-08-06T01:37:12;95272.31;;;11.59
67966;BMP280;54749;47.850;9.002;2023-08-06T01:39:40;95257.13;;;11.59
67966;BMP280;54749;47.850;9.002;2023-08-06T01:42:09;95267.25;;;11.59
67966;BMP280;54749;47.850;9.002;2023-08-06T01:44:36;95258.44;;;11.63
67966;BMP280;54749;47.850;9.002;2023-08-06T01:47:04;95261.88;;;11.62
67966;BMP280;54749;47.850;9.002;2023-08-06T01:49:32;95265.09;;;11.64
67966;BMP280;54749;47.850;9.002;2023-08-06T01:51:59;95250.56;;;11.66
67966;BMP280;54749;47.850;9.002;2023-08-06T01:54:27;95259.47;;;11.70
67966;BMP280;54749;47.850;9.002;2023-08-06T01:56:55;95263.59;;;11.71
67966;BMP280;54749;47.850;9.002;2023-08-06T01:59:22;95269.59;;;11.70
67966;BMP280;54749;47.850;9.002;2023-08-06T02:01:49;95270.69;;;11.68
67966;BMP280;54749;47.850;9.002;2023-08-06T02:04:17;95267.97;;;11.69
67966;BMP280;54749;47.850;9.002;2023-08-06T02:06:44;95257.72;;;11.71
67966;BMP280;54749;47.850;9.002;2023-08-06T02:09:12;95254.66;;;11.76
67966;BMP280;54749;47.850;9.002;2023-08-06T02:11:38;95253.03;;;11.85
67966;BMP280;54749;47.850;9.002;2023-08-06T02:14:06;95254.06;;;11.91
67966;BMP280;54749;47.850;9.002;2023-08-06T02:16:33;95250.97;;;11.97
67966;BMP280;54749;47.850;9.002;2023-08-06T02:19:02;95256.13;;;12.05
67966;BMP280;54749;47.850;9.002;2023-08-06T02:21:28;95238.47;;;12.13
67966;BMP280;54749;47.850;9.002;2023-08-06T02:23:56;95242.19;;;12.18
67966;BMP280;54749;47.850;9.002;2023-08-06T02:26:23;95240.69;;;12.25
67966;BMP280;54749;47.850;9.002;2023-08-06T02:28:50;95241.72;;;12.32
67966;BMP280;54749;47.850;9.002;2023-08-06T02:31:17;95227.69;;;12.37
67966;BMP280;54749;47.850;9.002;2023-08-06T02:33:44;95221.38;;;12.41
67966;BMP280;54749;47.850;9.002;2023-08-06T02:36:11;95226.97;;;12.44
67966;BMP280;54749;47.850;9.002;2023-08-06T02:38:39;95222.31;;;12.40
67966;BMP280;54749;47.850;9.002;2023-08-06T02:41:06;95214.06;;;12.38
67966;BMP280;54749;47.850;9.002;2023-08-06T02:43:33;95214.34;;;12.35
67966;BMP280;54749;47.850;9.002;2023-08-06T02:46:01;95219.41;;;12.35
67966;BMP280;54749;47.850;9.002;2023-08-06T02:48:28;95222.09;;;12.34
67966;BMP280;54749;47.850;9.002;2023-08-06T02:50:59;95212.25;;;12.31
67966;BMP280;54749;47.850;9.002;2023-08-06T02:53:28;95210.94;;;12.27
67966;BMP280;54749;47.850;9.002;2023-08-06T02:55:57;95200.94;;;12.25
67966;BMP280;54749;47.850;9.002;2023-08-06T02:58:33;95203.78;;;12.23
67966;BMP280;54749;47.850;9.002;2023-08-06T03:01:12;95209.78;;;12.22
67966;BMP280;54749;47.850;9.002;2023-08-06T03:03:46;95204.19;;;12.18
67966;BMP280;54749;47.850;9.002;2023-08-06T03:06:19;95213.16;;;12.13
67966;BMP280;54749;47.850;9.002;2023-08-06T03:08:50;95195.06;;;12.08
67966;BMP280;54749;47.850;9.002;2023-08-06T03:11:17;95193.75;;;12.04
67966;BMP280;54749;47.850;9.002;2023-08-06T03:13:45;95189.91;;;12.00
67966;BMP280;54749;47.850;9.002;2023-08-06T03:16:12;95201.75;;;12.00
67966;BMP280;54749;47.850;9.002;2023-08-06T03:18:39;95192.59;;;11.99
67966;BMP280;54749;47.850;9.002;2023-08-06T03:21:08;95196.56;;;12.01
67966;BMP280;54749;47.850;9.002;2023-08-06T03:23:36;95198.16;;;12.02
67966;BMP280;54749;47.850;9.002;2023-08-06T03:26:04;95202.94;;;12.05
67966;BMP280;54749;47.850;9.002;2023-08-06T03:28:32;95195.72;;;12.10
67966;BMP280;54749;47.850;9.002;2023-08-06T03:31:01;95187.13;;;12.20
67966;BMP280;54749;47.850;9.002;2023-08-06T03:33:35;95189.88;;;12.26
67966;BMP280;54749;47.850;9.002;2023-08-06T03:36:06;95187.72;;;12.31
67966;BMP280;54749;47.850;9.002;2023-08-06T03:38:34;95189.50;;;12.39
67966;BMP280;54749;47.850;9.002;2023-08-06T03:41:04;95201.75;;;12.43
67966;BMP280;54749;47.850;9.002;2023-08-06T03:43:32;95199.59;;;12.48
67966;BMP280;54749;47.850;9.002;2023-08-06T03:46:00;95199.03;;;12.54
67966;BMP280;54749;47.850;9.002;2023-08-06T03:48:27;95196.06;;;12.58
67966;BMP280;54749;47.850;9.002;2023-08-06T03:50:54;95199.78;;;12.63
67966;BMP280;54749;47.850;9.002;2023-08-06T03:53:23;95202.66;;;12.68
67966;BMP280;54749;47.850;9.002;2023-08-06T03:55:50;95198.91;;;12.72
67966;BMP280;54749;47.850;9.002;2023-08-06T03:58:18;95191.81;;;12.76
67966;BMP280;54749;47.850;9.002;2023-08-06T04:00:45;95198.97;;;12.80
67966;BMP280;54749;47.850;9.002;2023-08-06T04:03:12;95190.13;;;12.84
67966;BMP280;54749;47.850;9.002;2023-08-06T04:05:39;95193.97;;;12.88
67966;BMP280;54749;47.850;9.002;2023-08-06T04:08:07;95190.19;;;12.92
67966;BMP280;54749;47.850;9.002;2023-08-06T04:10:34;95198.28;;;12.95
67966;BMP280;54749;47.850;9.002;2023-08-06T04:13:01;95198.94;;;12.97
67966;BMP280;54749;47.850;9.002;2023-08-06T04:15:29;95207.06;;;13.00
67966;BMP280;54749;47.850;9.002;2023-08-06T04:17:56;95213.59;;;13.03
67966;BMP280;54749;47.850;9.002;2023-08-06T04:20:24;95215.03;;;13.05
67966;BMP280;54749;47.850;9.002;2023-08-06T04:22:54;95203.78;;;13.08
67966;BMP280;54749;47.850;9.002;2023-08-06T04:25:21;95215.38;;;13.10
67966;BMP280;54749;47.850;9.002;2023-08-06T04:27:50;95217.63;;;13.13
67966;BMP280;54749;47.850;9.002;2023-08-06T04:30:17;95219.84;;;13.16
67966;BMP280;54749;47.850;9.002;2023-08-06T04:32:45;95221.44;;;13.17
67966;BMP280;54749;47.850;9.002;2023-08-06T04:35:13;95212.91;;;13.18
67966;BMP280;54749;47.850;9.002;2023-08-06T04:37:41;95196.88;;;13.17
67966;BMP280;54749;47.850;9.002;2023-08-06T04:40:09;95218.31;;;13.23
67966;BMP280;54749;47.850;9.002;2023-08-06T04:42:37;95215.66;;;13.24
67966;BMP280;54749;47.850;9.002;2023-08-06T04:45:04;95201.06;;;13.26
67966;BMP280;54749;47.850;9.002;2023-08-06T04:47:32;95210.91;;;13.29
67966;BMP280;54749;47.850;9.002;2023-08-06T04:49:59;95199.97;;;13.29
67966;BMP280;54749;47.850;9.002;2023-08-06T04:52:26;95208.22;;;13.31
67966;BMP280;54749;47.850;9.002;2023-08-06T04:54:55;95213.78;;;13.34
67966;BMP280;54749;47.850;9.002;2023-08-06T04:57:22;95207.19;;;13.41
67966;BMP280;54749;47.850;9.002;2023-08-06T04:59:49;95196.28;;;13.48
67966;BMP280;54749;47.850;9.002;2023-08-06T05:02:16;95198.38;;;13.52
67966;BMP280;54749;47.850;9.002;2023-08-06T05:04:43;95201.56;;;13.54
67966;BMP280;54749;47.850;9.002;2023-08-06T05:07:11;95189.19;;;13.59
67966;BMP280;54749;47.850;9.002;2023-08-06T05:09:38;95207.31;;;13.64
67966;BMP280;54749;47.850;9.002;2023-08-06T05:12:07;95197.94;;;13.65
67966;BMP280;54749;47.850;9.002;2023-08-06T05:14:34;95201.94;;;13.67
67966;BMP280;54749;47.850;9.002;2023-08-06T05:17:01;95213.56;;;13.77
67966;BMP280;54749;47.850;9.002;2023-08-06T05:19:31;95205.59;;;13.72
67966;BMP280;54749;47.850;9.002;2023-08-06T05:21:58;95209.56;;;13.67
67966;BMP280;54749;47.850;9.002;2023-08-06T05:24:25;95206.84;;;13.68
67966;BMP280;54749;47.850;9.002;2023-08-06T05:26:52;95206.22;;;13.66
67966;BMP280;54749;47.850;9.002;2023-08-06T05:29:19;95209.13;;;13.71
67966;BMP280;54749;47.850;9.002;2023-08-06T05:31:47;95221.09;;;13.86
67966;BMP280;54749;47.850;9.002;2023-08-06T05:34:14;95222.84;;;13.86
67966;BMP280;54749;47.850;9.002;2023-08-06T05:36:41;95228.56;;;13.80
67966;BMP280;54749;47.850;9.002;2023-08-06T05:39:08;95226.91;;;13.79
67966;BMP280;54749;47.850;9.002;2023-08-06T05:41:36;95235.19;;;13.81
67966;BMP280;54749;47.850;9.002;2023-08-06T05:44:03;95240.41;;;13.80
67966;BMP280;54749;47.850;9.002;2023-08-06T05:46:30;95238.81;;;13.79
67966;BMP280;54749;47.850;9.002;2023-08-06T05:48:57;95231.44;;;13.85
67966;BMP280;54749;47.850;9.002;2023-08-06T05:51:26;95233.00;;;13.86
67966;BMP280;54749;47.850;9.002;2023-08-06T05:53:53;95251.78;;;13.93
67966;BMP280;54749;47.850;9.002;2023-08-06T05:56:21;95229.69;;;14.34
67966;BMP280;54749;47.850;9.002;2023-08-06T05:58:48;95234.59;;;14.75
67966;BMP280;54749;47.850;9.002;2023-08-06T06:01:15;95226.38;;;16.04
67966;BMP280;54749;47.850;9.002;2023-08-06T06:03:43;95205.16;;;17.87
67966;BMP280;54749;47.850;9.002;2023-08-06T06:06:10;95199.75;;;18.24
67966;BMP280;54749;47.850;9.002;2023-08-06T06:08:37;95203.91;;;18.11
67966;BMP280;54749;47.850;9.002;2023-08-06T06:11:05;95198.91;;;19.27
67966;BMP280;54749;47.850;9.002;2023-08-06T06:13:32;95185.19;;;20.67
67966;BMP280;54749;47.850;9.002;2023-08-06T06:15:59;95174.63;;;21.83
67966;BMP280;54749;47.850;9.002;2023-08-06T06:18:26;95187.31;;;21.15
67966;BMP280;54749;47.850;9.002;2023-08-06T06:20:53;95197.25;;;20.27
67966;BMP280;54749;47.850;9.002;2023-08-06T06:23:20;95206.41;;;19.69
67966;BMP280;54749;47.850;9.002;2023-08-06T06:25:49;95208.56;;;19.25
67966;BMP280;54749;47.850;9.002;2023-08-06T06:28:18;95219.34;;;18.66
67966;BMP280;54749;47.850;9.002;2023-08-06T06:30:46;95222.06;;;18.30
67966;BMP280;54749;47.850;9.002;2023-08-06T06:33:13;95240.19;;;17.64
67966;BMP280;54749;47.850;9.002;2023-08-06T06:35:40;95245.97;;;17.44
67966;BMP280;54749;47.850;9.002;2023-08-06T06:38:07;95240.34;;;17.49
67966;BMP280;54749;47.850;9.002;2023-08-06T06:40:34;95225.69;;;17.79
67966;BMP280;54749;47.850;9.002;2023-08-06T06:43:01;95244.75;;;17.54
67966;BMP280;54749;47.850;9.002;2023-08-06T06:45:29;95238.13;;;17.24
67966;BMP280;54749;47.850;9.002;2023-08-06T06:47:56;95247.75;;;17.00
67966;BMP280;54749;47.850;9.002;2023-08-06T06:50:23;95248.91;;;16.60
67966;BMP280;54749;47.850;9.002;2023-08-06T06:52:50;95243.91;;;16.45
67966;BMP280;54749;47.850;9.002;2023-08-06T06:55:18;95261.59;;;16.09
67966;BMP280;54749;47.850;9.002;2023-08-06T06:57:45;95273.09;;;15.74
67966;BMP280;54749;47.850;9.002;2023-08-06T07:00:12;95281.72;;;15.57
67966;BMP280;54749;47.850;9.002;2023-08-06T07:02:39;95269.63;;;15.51
67966;BMP280;54749;47.850;9.002;2023-08-06T07:05:07;95266.28;;;15.43
67966;BMP280;54749;47.850;9.002;2023-08-06T07:07:36;95283.97;;;15.44
67966;BMP280;54749;47.850;9.002;2023-08-06T07:10:05;95280.91;;;15.02
67966;BMP280;54749;47.850;9.002;2023-08-06T07:12:32;95297.72;;;14.88
67966;BMP280;54749;47.850;9.002;2023-08-06T07:14:59;95294.50;;;14.78
67966;BMP280;54749;47.850;9.002;2023-08-06T07:17:26;95300.19;;;14.64
67966;BMP280;54749;47.850;9.002;2023-08-06T07:19:54;95307.44;;;14.44
67966;BMP280;54749;47.850;9.002;2023-08-06T07:22:21;95309.59;;;14.23
67966;BMP280;54749;47.850;9.002;2023-08-06T07:24:48;95304.66;;;14.22
67966;BMP280;54749;47.850;9.002;2023-08-06T07:27:15;95322.44;;;14.22
67966;BMP280;54749;47.850;9.002;2023-08-06T07:29:42;95320.56;;;14.24
67966;BMP280;54749;47.850;9.002;2023-08-06T07:32:09;95331.94;;;14.20
67966;BMP280;54749;47.850;9.002;2023-08-06T07:34:37;95326.81;;;14.12
67966;BMP280;54749;47.850;9.002;2023-08-06T07:37:04;95338.91;;;14.10
67966;BMP280;54749;47.850;9.002;2023-08-06T07:39:31;95341.47;;;14.18
67966;BMP280;54749;47.850;9.002;2023-08-06T07:41:59;95333.19;;;14.41
67966;BMP280;54749;47.850;9.002;2023-08-06T07:44:27;95339.97;;;14.73
67966;BMP280;54749;47.850;9.002;2023-08-06T07:46:54;95339.84;;;14.90
67966;BMP280;54749;47.850;9.002;2023-08-06T07:49:21;95324.16;;;14.94
67966;BMP280;54749;47.850;9.002;2023-08-06T07:51:48;95323.41;;;15.02
67966;BMP280;54749;47.850;9.002;2023-08-06T07:54:16;95313.03;;;15.11
67966;BMP280;54749;47.850;9.002;2023-08-06T07:56:43;95321.66;;;15.18
67966;BMP280;54749;47.850;9.002;2023-08-06T07:59:10;95319.91;;;15.10
67966;BMP280;54749;47.850;9.002;2023-08-06T08:01:37;95315.44;;;15.12
67966;BMP280;54749;47.850;9.002;2023-08-06T08:04:05;95308.75;;;14.96
67966;BMP280;54749;47.850;9.002;2023-08-06T08:06:33;95310.34;;;14.97
67966;BMP280;54749;47.850;9.002;2023-08-06T08:09:00;95309.84;;;14.93
67966;BMP280;54749;47.850;9.002;2023-08-06T08:11:27;95329.09;;;14.96
67966;BMP280;54749;47.850;9.002;2023-08-06T08:13:55;95315.34;;;14.81
67966;BMP280;54749;47.850;9.002;2023-08-06T08:16:22;95319.78;;;14.72
67966;BMP280;54749;47.850;9.002;2023-08-06T08:18:49;95313.78;;;14.88
67966;BMP280;54749;47.850;9.002;2023-08-06T08:21:16;95326.63;;;14.79
67966;BMP280;54749;47.850;9.002;2023-08-06T08:23:43;95317.84;;;14.66
67966;BMP280;54749;47.850;9.002;2023-08-06T08:26:10;95322.97;;;14.81
67966;BMP280;54749;47.850;9.002;2023-08-06T08:28:38;95315.56;;;14.95
67966;BMP280;54749;47.850;9.002;2023-08-06T08:31:08;95314.44;;;14.98
67966;BMP280;54749;47.850;9.002;2023-08-06T08:33:39;95314.50;;;15.13
67966;BMP280;54749;47.850;9.002;2023-08-06T08:36:06;95321.97;;;15.30
67966;BMP280;54749;47.850;9.002;2023-08-06T08:38:33;95323.41;;;15.17
67966;BMP280;54749;47.850;9.002;2023-08-06T08:41:00;95317.16;;;14.96
67966;BMP280;54749;47.850;9.002;2023-08-06T08:43:29;95322.34;;;14.72
67966;BMP280;54749;47.850;9.002;2023-08-06T08:45:56;95322.13;;;14.65
67966;BMP280;54749;47.850;9.002;2023-08-06T08:48:27;95327.38;;;14.64
67966;BMP280;54749;47.850;9.002;2023-08-06T08:50:57;95322.00;;;14.67
67966;BMP280;54749;47.850;9.002;2023-08-06T08:53:26;95344.53;;;14.62
67966;BMP280;54749;47.850;9.002;2023-08-06T08:55:54;95339.13;;;14.57
67966;BMP280;54749;47.850;9.002;2023-08-06T08:58:22;95333.44;;;14.63
67966;BMP280;54749;47.850;9.002;2023-08-06T09:00:49;95342.59;;;14.56
67966;BMP280;54749;47.850;9.002;2023-08-06T09:03:17;95353.13;;;14.69
67966;BMP280;54749;47.850;9.002;2023-08-06T09:05:49;95352.47;;;14.99
67966;BMP280;54749;47.850;9.002;2023-08-06T09:08:21;95344.88;;;15.15
67966;BMP280;54749;47.850;9.002;2023-08-06T09:10:51;95333.78;;;15.31
67966;BMP280;54749;47.850;9.002;2023-08-06T09:13:19;95351.59;;;15.39
67966;BMP280;54749;47.850;9.002;2023-08-06T09:15:48;95339.34;;;15.74
67966;BMP280;54749;47.850;9.002;2023-08-06T09:18:25;95329.47;;;15.78
67966;BMP280;54749;47.850;9.002;2023-08-06T09:20:54;95336.47;;;16.00
67966;BMP280;54749;47.850;9.002;2023-08-06T09:23:27;95325.75;;;16.65
67966;BMP280;54749;47.850;9.002;2023-08-06T09:25:57;95336.91;;;17.09
67966;BMP280;54749;47.850;9.002;2023-08-06T09:28:34;95339.53;;;16.94
67966;BMP280;54749;47.850;9.002;2023-08-06T09:31:03;95317.88;;;16.37
67966;BMP280;54749;47.850;9.002;2023-08-06T09:33:31;95330.22;;;16.63
67966;BMP280;54749;47.850;9.002;2023-08-06T09:36:07;95335.84;;;17.48
67966;BMP280;54749;47.850;9.002;2023-08-06T09:38:38;95305.16;;;18.20
67966;BMP280;54749;47.850;9.002;2023-08-06T09:41:07;95306.06;;;18.83
67966;BMP280;54749;47.850;9.002;2023-08-06T09:43:43;95307.59;;;19.53
67966;BMP280;54749;47.850;9.002;2023-08-06T09:46:14;95306.94;;;19.92
67966;BMP280;54749;47.850;9.002;2023-08-06T09:48:45;95309.88;;;19.89
67966;BMP280;54749;47.850;9.002;2023-08-06T09:51:13;95314.38;;;20.07
67966;BMP280;54749;47.850;9.002;2023-08-06T09:53:41;95301.31;;;20.56
67966;BMP280;54749;47.850;9.002;2023-08-06T09:56:10;95303.16;;;21.20
67966;BMP280;54749;47.850;9.002;2023-08-06T09:58:38;95304.47;;;21.04
67966;BMP280;54749;47.850;9.002;2023-08-06T10:01:06;95330.31;;;19.76
67966;BMP280;54749;47.850;9.002;2023-08-06T10:03:34;95322.78;;;18.99
67966;BMP280;54749;47.850;9.002;2023-08-06T10:06:02;95352.16;;;18.05
67966;BMP280;54749;47.850;9.002;2023-08-06T10:08:34;95362.22;;;17.18
67966;BMP280;54749;47.850;9.002;2023-08-06T10:11:02;95359.19;;;16.78
67966;BMP280;54749;47.850;9.002;2023-08-06T10:13:33;95366.63;;;16.57
67966;BMP280;54749;47.850;9.002;2023-08-06T10:16:01;95369.56;;;16.76
67966;BMP280;54749;47.850;9.002;2023-08-06T10:18:33;95367.25;;;16.89
67966;BMP280;54749;47.850;9.002;2023-08-06T10:21:02;95367.06;;;17.57
67966;BMP280;54749;47.850;9.002;2023-08-06T10:23:33;95369.06;;;18.06
67966;BMP280;54749;47.850;9.002;2023-08-06T10:26:01;95361.72;;;18.39
67966;BMP280;54749;47.850;9.002;2023-08-06T10:28:37;95348.56;;;18.27
67966;BMP280;54749;47.850;9.002;2023-08-06T10:31:04;95344.44;;;18.55
67966;BMP280;54749;47.850;9.002;2023-08-06T10:33:45;95334.91;;;19.26
67966;BMP280;54749;47.850;9.002;2023-08-06T10:36:13;95336.31;;;19.48
67966;BMP280;54749;47.850;9.002;2023-08-06T10:38:48;95313.75;;;21.05
67966;BMP280;54749;47.850;9.002;2023-08-06T10:41:23;95330.75;;;20.60
67966;BMP280;54749;47.850;9.002;2023-08-06T10:44:06;95352.16;;;19.93
67966;BMP280;54749;47.850;9.002;2023-08-06T10:46:37;95356.03;;;19.83
67966;BMP280;54749;47.850;9.002;2023-08-06T10:49:05;95354.47;;;19.47
67966;BMP280;54749;47.850;9.002;2023-08-06T10:51:34;95376.16;;;18.82
67966;BMP280;54749;47.850;9.002;2023-08-06T10:54:02;95358.81;;;18.56
67966;BMP280;54749;47.850;9.002;2023-08-06T10:56:29;95354.31;;;18.43
67966;BMP280;54749;47.850;9.002;2023-08-06T10:58:58;95369.47;;;18.45
67966;BMP280;54749;47.850;9.002;2023-08-06T11:01:28;95367.41;;;18.48
67966;BMP280;54749;47.850;9.002;2023-08-06T11:04:02;95349.66;;;18.47
67966;BMP280;54749;47.850;9.002;2023-08-06T11:06:29;95356.13;;;19.20
67966;BMP280;54749;47.850;9.002;2023-08-06T11:08:56;95349.03;;;18.59
67966;BMP280;54749;47.850;9.002;2023-08-06T11:11:23;95352.28;;;18.67
67966;BMP280;54749;47.850;9.002;2023-08-06T11:13:52;95379.03;;;18.79
67966;BMP280;54749;47.850;9.002;2023-08-06T11:16:22;95359.50;;;19.06
67966;BMP280;54749;47.850;9.002;2023-08-06T11:18:52;95354.97;;;19.57
67966;BMP280;54749;47.850;9.002;2023-08-06T11:21:23;95341.19;;;20.05
67966;BMP280;54749;47.850;9.002;2023-08-06T11:23:52;95355.34;;;20.21
67966;BMP280;54749;47.850;9.002;2023-08-06T11:26:20;95343.78;;;20.98
67966;BMP280;54749;47.850;9.002;2023-08-06T11:28:48;95341.19;;;20.98
67966;BMP280;54749;47.850;9.002;2023-08-06T11:31:22;95341.16;;;20.52
67966;BMP280;54749;47.850;9.002;2023-08-06T11:33:54;95358.66;;;20.16
67966;BMP280;54749;47.850;9.002;2023-08-06T11:36:34;95359.13;;;20.25
67966;BMP280;54749;47.850;9.002;2023-08-06T11:39:02;95349.97;;;19.90
67966;BMP280;54749;47.850;9.002;2023-08-06T11:41:32;95363.94;;;19.67
67966;BMP280;54749;47.850;9.002;2023-08-06T11:44:00;95361.56;;;19.86
67966;BMP280;54749;47.850;9.002;2023-08-06T11:46:27;95358.41;;;20.31
67966;BMP280;54749;47.850;9.002;2023-08-06T11:48:55;95343.66;;;20.72
67966;BMP280;54749;47.850;9.002;2023-08-06T11:51:26;95356.09;;;21.08
67966;BMP280;54749;47.850;9.002;2023-08-06T11:53:56;95370.91;;;21.06
67966;BMP280;54749;47.850;9.002;2023-08-06T11:56:27;95358.84;;;20.35
67966;BMP280;54749;47.850;9.002;2023-08-06T11:58:54;95368.53;;;19.71
67966;BMP280;54749;47.850;9.002;2023-08-06T12:01:22;95375.31;;;19.44
67966;BMP280;54749;47.850;9.002;2023-08-06T12:03:49;95373.31;;;20.01
67966;BMP280;54749;47.850;9.002;2023-08-06T12:06:16;95361.53;;;19.45
67966;BMP280;54749;47.850;9.002;2023-08-06T12:08:44;95393.44;;;19.77
67966;BMP280;54749;47.850;9.002;2023-08-06T12:11:11;95404.56;;;19.01
67966;BMP280;54749;47.850;9.002;2023-08-06T12:13:38;95415.47;;;18.39
67966;BMP280;54749;47.850;9.002;2023-08-06T12:16:05;95414.56;;;18.18
67966;BMP280;54749;47.850;9.002;2023-08-06T12:18:32;95402.97;;;17.86
67966;BMP280;54749;47.850;9.002;2023-08-06T12:20:59;95400.81;;;18.33
67966;BMP280;54749;47.850;9.002;2023-08-06T12:23:27;95402.19;;;18.21
67966;BMP280;54749;47.850;9.002;2023-08-06T12:25:54;95417.16;;;17.88
67966;BMP280;54749;47.850;9.002;2023-08-06T12:28:21;95422.34;;;17.51
67966;BMP280;54749;47.850;9.002;2023-08-06T12:30:50;95427.78;;;17.26
67966;BMP280;54749;47.850;9.002;2023-08-06T12:33:18;95445.16;;;17.30
67966;BMP280;54749;47.850;9.002;2023-08-06T12:35:45;95450.72;;;16.96
67966;BMP280;54749;47.850;9.002;2023-08-06T12:38:13;95471.78;;;16.90
67966;BMP280;54749;47.850;9.002;2023-08-06T12:40:40;95459.72;;;16.61
67966;BMP280;54749;47.850;9.002;2023-08-06T12:43:10;95457.53;;;16.43
67966;BMP280;54749;47.850;9.002;2023-08-06T12:45:37;95468.84;;;16.25
67966;BMP280;54749;47.850;9.002;2023-08-06T12:48:04;95476.19;;;16.12
67966;BMP280;54749;47.850;9.002;2023-08-06T12:50:31;95484.56;;;15.89
67966;BMP280;54749;47.850;9.002;2023-08-06T12:53:00;95483.41;;;15.60
67966;BMP280;54749;47.850;9.002;2023-08-06T12:55:27;95492.50;;;15.63
67966;BMP280;54749;47.850;9.002;2023-08-06T12:57:59;95501.72;;;15.56
67966;BMP280;54749;47.850;9.002;2023-08-06T13:00:26;95512.09;;;15.62
67966;BMP280;54749;47.850;9.002;2023-08-06T13:02:54;95497.28;;;15.66
67966;BMP280;54749;47.850;9.002;2023-08-06T13:05:21;95500.44;;;15.60
67966;BMP280;54749;47.850;9.002;2023-08-06T13:07:49;95506.78;;;15.41
67966;BMP280;54749;47.850;9.002;2023-08-06T13:10:16;95487.94;;;15.26
67966;BMP280;54749;47.850;9.002;2023-08-06T13:12:43;95508.75;;;15.22
67966;BMP280;54749;47.850;9.002;2023-08-06T13:15:11;95504.34;;;15.24
67966;BMP280;54749;47.850;9.002;2023-08-06T13:17:38;95509.44;;;15.24
67966;BMP280;54749;47.850;9.002;2023-08-06T13:20:06;95511.44;;;15.12
67966;BMP280;54749;47.850;9.002;2023-08-06T13:22:33;95511.63;;;15.19
67966;BMP280;54749;47.850;9.002;2023-08-06T13:25:00;95507.03;;;15.22
67966;BMP280;54749;47.850;9.002;2023-08-06T13:27:27;95510.81;;;15.18
67966;BMP280;54749;47.850;9.002;2023-08-06T13:29:54;95515.13;;;15.18
67966;BMP280;54749;47.850;9.002;2023-08-06T13:32:22;95503.53;;;15.23
67966;BMP280;54749;47.850;9.002;2023-08-06T13:34:49;95500.72;;;15.42
67966;BMP280;54749;47.850;9.002;2023-08-06T13:37:17;95490.59;;;15.57
67966;BMP280;54749;47.850;9.002;2023-08-06T13:39:44;95485.06;;;15.93
67966;BMP280;54749;47.850;9.002;2023-08-06T13:42:11;95497.06;;;16.31
67966;BMP280;54749;47.850;9.002;2023-08-06T13:44:39;95488.28;;;16.41
67966;BMP280;54749;47.850;9.002;2023-08-06T13:47:06;95488.75;;;16.37
67966;BMP280;54749;47.850;9.002;2023-08-06T13:49:33;95475.97;;;16.68
67966;BMP280;54749;47.850;9.002;2023-08-06T13:52:00;95483.19;;;17.18
67966;BMP280;54749;47.850;9.002;2023-08-06T13:54:46;95452.75;;;17.97
67966;BMP280;54749;47.850;9.002;2023-08-06T13:57:14;95468.81;;;18.27
67966;BMP280;54749;47.850;9.002;2023-08-06T13:59:41;95446.13;;;18.60
67966;BMP280;54749;47.850;9.002;2023-08-06T14:02:08;95444.56;;;18.88
67966;BMP280;54749;47.850;9.002;2023-08-06T14:04:35;95433.53;;;18.73
67966;BMP280;54749;47.850;9.002;2023-08-06T14:07:04;95449.44;;;18.69
67966;BMP280;54749;47.850;9.002;2023-08-06T14:09:31;95452.09;;;18.53
67966;BMP280;54749;47.850;9.002;2023-08-06T14:11:58;95466.81;;;18.37
67966;BMP280;54749;47.850;9.002;2023-08-06T14:14:25;95460.53;;;18.25
67966;BMP280;54749;47.850;9.002;2023-08-06T14:16:54;95482.09;;;18.01
67966;BMP280;54749;47.850;9.002;2023-08-06T14:19:22;95519.75;;;17.55
67966;BMP280;54749;47.850;9.002;2023-08-06T14:21:52;95520.59;;;16.87